DRI Storm Peak Lab. Weather observations

Data are for 5 minute period ending at time listed.
 Day   Time    Ave.   Ave.  Ave.  Vector  Max.   Total    Baro.    Solar      Aerosol      Ave.  Ultrafine   Snow  
  of    of     Air    Rel.  Wind   Wind   Wind  Precip.   Pres.  Radiation   Aerosol      Ozone   Aerosol    Depth 
Year   Day     Temp.  Hum.  Speed  Dir.   Gust                               Ave.   Max.            Ave.           
2017   (MST)    F      %     mph   deg.    mph    in.      mb.     w/m2         #/cm3      ppbv    #/cm3      in.  
-------------------------------------------------------------------------------------------------------------------
 208    2:15   51.4    92    1.8   185     1.8   999.00    699.3    999.0    999000   999000   999.0    999000   999.0
 208    2:20   51.3    93    1.8   185     1.8   999.00    699.3    999.0    999000   999000   999.0    999000   999.0
 208    2:25   51.4    93    1.8   184     1.8   999.00    699.3    999.0    999000   999000   999.0    999000   999.0
 208    2:30   51.5    92    1.8   184     1.8   999.00    699.3    999.0    999000   999000   999.0    999000   999.0
 208    2:35   51.4    92    1.8   184     2.0   999.00    699.3    999.0    999000   999000   999.0    999000   999.0
 208    2:40   51.2    95    1.8   184     1.8   999.00    699.3    999.0    999000   999000   999.0    999000   999.0
 208    2:45   50.9    96    1.8   184     1.8   999.00    699.2    999.0    999000   999000   999.0    999000   999.0
 208    2:50   51.0    96    1.8   184     1.8   999.00    699.2    999.0    999000   999000   999.0    999000   999.0
 208    2:55   50.8    97    1.8   184     1.8   999.00    699.1    999.0    999000   999000   999.0    999000   999.0
 208    3:00   50.7    97    1.8   184     1.8   999.00    699.1    999.0    999000   999000   999.0    999000   999.0
 208    3:05   50.9    97    1.8   184     1.8   999.00    699.1    999.0    999000   999000   999.0    999000   999.0
 208    3:10   51.1    94    1.8   184     1.8   999.00    699.1    999.0    999000   999000   999.0    999000   999.0
 208    3:15   51.0    96    1.8   184     1.8   999.00    699.1    999.0    999000   999000   999.0    999000   999.0
 208    3:20   50.8    98    1.8   184     1.8   999.00    699.1    999.0    999000   999000   999.0    999000   999.0
 208    3:25   50.6    98    1.8   184     1.8   999.00    699.1    999.0    999000   999000   999.0    999000   999.0
 208    3:30   50.5    99    1.8   184     1.8   999.00    699.0    999.0    999000   999000   999.0    999000   999.0
 208    3:35   50.5    99    1.8   184     1.8   999.00    699.0    999.0    999000   999000   999.0    999000   999.0
 208    3:40   50.5    99    1.8   184     1.8   999.00    699.0    999.0    999000   999000   999.0    999000   999.0
 208    3:45   50.4    98    1.8   184     1.8   999.00    699.0    999.0    999000   999000   999.0    999000   999.0
 208    3:50   50.4    98    1.8   184     1.8   999.00    699.0    999.0    999000   999000   999.0    999000   999.0
 208    3:55   50.4    97    1.8   184     1.8   999.00    699.0    999.0    999000   999000   999.0    999000   999.0
 208    4:00   50.5    97    1.8   183     2.2   999.00    699.0    999.0    999000   999000   999.0    999000   999.0
 208    4:05   50.5    97    1.8   183     2.2   999.00    699.0    999.0    999000   999000   999.0    999000   999.0
 208    4:10   50.4    97    2.5   183     3.1   999.00    699.0    999.0    999000   999000   999.0    999000   999.0
 208    4:15   50.5    96    2.7   183     3.3   999.00    699.0    999.0    999000   999000   999.0    999000   999.0
 208    4:20   50.7    96    3.2   183     3.7   999.00    699.0    999.0    999000   999000   999.0    999000   999.0
 208    4:25   50.8    98    3.9   183     4.6   999.00    699.0    999.0    999000   999000   999.0    999000   999.0
 208    4:30   50.7    97    4.3   183     5.0   999.00    699.0    999.0    999000   999000   999.0    999000   999.0
 208    4:35   50.7    96    4.6   183     5.2   999.00    699.0    999.0    999000   999000   999.0    999000   999.0
 208    4:40   50.7    96    5.1   183     6.5   999.00    699.0    999.0    999000   999000   999.0    999000   999.0
 208    4:45   50.7    96    4.9   183     5.9   999.00    699.0    999.0    999000   999000   999.0    999000   999.0
 208    4:50   50.8    94    5.0   184     6.1   999.00    699.0    999.0    999000   999000   999.0    999000   999.0
 208    4:55   50.9    93    6.0   185     7.8   999.00    699.0    999.0    999000   999000   999.0    999000   999.0
 208    5:00   51.0    92    5.6   186     7.8   999.00    699.0    999.0    999000   999000   999.0    999000   999.0
 208    5:05   50.9    92    4.7   187     6.6   999.00    699.0    999.0    999000   999000   999.0    999000   999.0
 208    5:10   50.9    93    3.7   188     4.8   999.00    699.1    999.0    999000   999000   999.0    999000   999.0
 208    5:15   50.9    93    3.8   188     5.2   999.00    699.1    999.0    999000   999000   999.0    999000   999.0
 208    5:20   51.0    92    2.6   188     4.4   999.00    699.2    999.0    999000   999000   999.0    999000   999.0
 208    5:25   50.9    94    2.6   188     3.5   999.00    699.2    999.0    999000   999000   999.0    999000   999.0
 208    5:30   50.9    94    2.8   188     4.4   999.00    699.2    999.0    999000   999000   999.0    999000   999.0
 208    5:35   51.0    92    2.4   188     3.1   999.00    699.3    999.0    999000   999000   999.0    999000   999.0
 208    5:40   51.1    91    2.7   188     4.2   999.00    699.3    999.0    999000   999000   999.0    999000   999.0
 208    5:45   51.2    91    4.5   189     6.3   999.00    699.3    999.0    999000   999000   999.0    999000   999.0
 208    5:50   51.2    92    3.9   189     5.5   999.00    699.4    999.0    999000   999000   999.0    999000   999.0
 208    5:55   51.2    92    3.7   189     5.5   999.00    699.3    999.0    999000   999000   999.0    999000   999.0
 208    6:00   51.2    93    3.5   189     5.0   999.00    699.3    999.0    999000   999000   999.0    999000   999.0
 208    6:05   51.2    92    3.5   189     4.6   999.00    699.2    999.0    999000   999000   999.0    999000   999.0
 208    6:10   51.3    91    4.1   189     6.5   999.00    699.3    999.0    999000   999000   999.0    999000   999.0
 208    6:15   51.4    90    4.6   190     7.9   999.00    699.4    999.0    999000   999000   999.0    999000   999.0
 208    6:20   51.4    92    3.3   190     7.0   999.00    699.4    999.0    999000   999000   999.0    999000   999.0
 208    6:25   51.2    94    3.1   190     4.8   999.00    699.4    999.0    999000   999000   999.0    999000   999.0
 208    6:30   51.0    96    3.4   191     5.3   999.00    699.5    999.0    999000   999000   999.0    999000   999.0
 208    6:35   51.0    96    3.2   191     5.7   999.00    699.5    999.0    999000   999000   999.0    999000   999.0
 208    6:40   50.9    96    3.2   191     4.4   999.00    699.6    999.0    999000   999000   999.0    999000   999.0
 208    6:45   51.0    95    3.9   191     6.6   999.00    699.6    999.0    999000   999000   999.0    999000   999.0
 208    6:50   51.1    95    3.7   191     6.3   999.00    699.6    999.0    999000   999000   999.0    999000   999.0
 208    6:55   51.2    94    3.4   191     5.2   999.00    699.7    999.0    999000   999000   999.0    999000   999.0
 208    7:00   51.3    93    3.3   191     5.0   999.00    699.7    999.0    999000   999000   999.0    999000   999.0
 208    7:05   51.4    92    3.8   191     5.2   999.00    699.7    999.0    999000   999000   999.0    999000   999.0
 208    7:10   51.5    91    3.3   191     4.6   999.00    699.8    999.0    999000   999000   999.0    999000   999.0
 208    7:15   51.7    91    3.1   191     4.4   999.00    699.8    999.0    999000   999000   999.0    999000   999.0
 208    7:20   51.8    91    2.7   191     4.2   999.00    699.8    999.0    999000   999000   999.0    999000   999.0
 208    7:25   51.8    90    2.8   191     3.8   999.00    699.9    999.0    999000   999000   999.0    999000   999.0
 208    7:30   52.1    89    2.4   191     3.3   999.00    699.9    999.0    999000   999000   999.0    999000   999.0
 208    7:35   52.9    88    2.7   192     3.7   999.00    699.9    999.0    999000   999000   999.0    999000   999.0
 208    7:40   53.0    87    2.7   192     4.0   999.00    699.9    999.0    999000   999000   999.0    999000   999.0
 208    7:45   52.8    88    2.5   192     3.7   999.00    699.9    999.0    999000   999000   999.0    999000   999.0
 208    7:50   52.9    87    3.0   192     4.0   999.00    699.9    999.0    999000   999000   999.0    999000   999.0
 208    7:55   53.0    86    2.5   192     4.0   999.00    699.9    999.0    999000   999000   999.0    999000   999.0
 208    8:00   53.1    87    2.8   192     3.7   999.00    700.0    999.0    999000   999000   999.0    999000   999.0
 208    8:05   53.4    86    2.7   192     4.4   999.00    699.9    999.0    999000   999000   999.0    999000   999.0
 208    8:10   53.4    85    3.0   192     3.7   999.00    699.9    999.0    999000   999000   999.0    999000   999.0
 208    8:15   53.5    87    2.8   192     4.4   999.00    699.9    999.0    999000   999000   999.0    999000   999.0
 208    8:20   54.3    85    3.1   192     3.7   999.00    699.9    999.0    999000   999000   999.0    999000   999.0
 208    8:25   53.9    84    3.4   194     4.6   999.00    699.9    999.0    999000   999000   999.0    999000   999.0
 208    8:30   54.3    84    3.5   197     4.2   999.00    699.8    999.0    999000   999000   999.0    999000   999.0
 208    8:35   53.7    84    3.4   197     4.6   999.00    699.8    999.0    999000   999000   999.0    999000   999.0
 208    8:40   53.5    86    3.9   197     4.8   999.00    699.8    999.0    999000   999000   999.0    999000   999.0
 208    8:45   54.6    85    3.2   197     4.4   999.00    699.8    999.0    999000   999000   999.0    999000   999.0
 208    8:50   54.9    82    3.4   197     5.0   999.00    699.8    999.0    999000   999000   999.0    999000   999.0
 208    8:55   54.2    84    3.5   198     4.4   999.00    699.8    999.0    999000   999000   999.0    999000   999.0
 208    9:00   54.4    83    4.0   198     5.7   999.00    699.8    999.0    999000   999000   999.0    999000   999.0
 208    9:05   54.3    83    5.2   200     7.0   999.00    699.8    999.0    999000   999000   999.0    999000   999.0
 208    9:10   54.5    84    4.6   201     6.5   999.00    699.8    999.0    999000   999000   999.0    999000   999.0
 208    9:15   54.3    83    4.5   201     6.5   999.00    699.7    999.0    999000   999000   999.0    999000   999.0
 208    9:20   54.6    85    3.7   201     5.2   999.00    699.7    999.0    999000   999000   999.0    999000   999.0
 208    9:25   54.7    84    4.2   201     5.3   999.00    699.8    999.0    999000   999000   999.0    999000   999.0
 208    9:30   55.0    86    3.8   201     5.9   999.00    699.9    999.0    999000   999000   999.0    999000   999.0
 208    9:35   55.9    82    4.0   201     5.9   999.00    699.9    999.0    999000   999000   999.0    999000   999.0
 208    9:40   54.4    82    4.5   201     5.9   999.00    699.9    999.0    999000   999000   999.0    999000   999.0
 208    9:45   54.5    84    3.6   201     4.8   999.00    699.8    999.0    999000   999000   999.0    999000   999.0
 208    9:50   54.9    82    3.8   201     4.6   999.00    699.9    999.0    999000   999000   999.0    999000   999.0
 208    9:55   55.7    82    3.6   201     4.6   999.00    699.9    999.0    999000   999000   999.0    999000   999.0
 208   10:00   55.9    82    3.2   201     5.0   999.00    699.9    999.0    999000   999000   999.0    999000   999.0
 208   10:05   56.2    81    3.3   201     5.9   999.00    699.9    999.0    999000   999000   999.0    999000   999.0
 208   10:10   56.1    82    3.0   201     4.6   999.00    700.0    999.0    999000   999000   999.0    999000   999.0
 208   10:15   55.6    80    2.7   200     4.8   999.00    699.9    999.0    999000   999000   999.0    999000   999.0
 208   10:20   55.7    77    3.0   200     5.2   999.00    699.9    999.0    999000   999000   999.0    999000   999.0
 208   10:25   56.1    79    3.1   201     4.8   999.00    699.9    999.0    999000   999000   999.0    999000   999.0
 208   10:30   55.7    78    2.5   201     4.0   999.00    699.9    999.0    999000   999000   999.0    999000   999.0
 208   10:35   55.8    80    2.9   200     4.8   999.00    699.9    999.0    999000   999000   999.0    999000   999.0
 208   10:40   55.9    80    3.0   200     4.8   999.00    699.9    999.0    999000   999000   999.0    999000   999.0
 208   10:45   57.6    79    3.1   200     5.5   999.00    699.9    999.0    999000   999000   999.0    999000   999.0
 208   10:50   56.7    80    2.9   200     5.2   999.00    699.9    999.0    999000   999000   999.0    999000   999.0
 208   10:55   56.2    79    3.3   200     5.2   999.00    699.9    999.0    999000   999000   999.0    999000   999.0
 208   11:00   57.0    77    4.5   201     6.5   999.00    699.8    999.0    999000   999000   999.0    999000   999.0
 208   11:05   56.8    78    3.7   201     6.3   999.00    699.8    999.0    999000   999000   999.0    999000   999.0
 208   11:10   57.4    80    2.9   201     5.3   999.00    699.7    999.0    999000   999000   999.0    999000   999.0
 208   11:15   58.7    77    3.9   201     5.5   999.00    699.7    999.0    999000   999000   999.0    999000   999.0
 208   11:20   57.5    76    4.9   201     9.2   999.00    699.7    999.0    999000   999000   999.0    999000   999.0
 208   11:25   58.2    78    3.6   201     5.9   999.00    699.7    999.0    999000   999000   999.0    999000   999.0
 208   11:30   58.1    78    2.8   201     5.3   999.00    699.7    999.0    999000   999000   999.0    999000   999.0
 208   11:35   58.1    77    4.3   201     6.3   999.00    699.7    999.0    999000   999000   999.0    999000   999.0
 208   11:40   57.7    79    3.6   201     6.5   999.00    699.7    999.0    999000   999000   999.0    999000   999.0
 208   11:45   58.4    76    4.1   201     8.5   999.00    699.6    999.0    999000   999000   999.0    999000   999.0
 208   11:50   58.8    72    3.8   201     6.3   999.00    699.6    999.0    999000   999000   999.0    999000   999.0
 208   11:55   58.5    72    5.8   201    11.7   999.00    699.6    999.0    999000   999000   999.0    999000   999.0
 208   12:00   58.3    67    6.7   201    12.0   999.00    699.5    999.0    999000   999000   999.0    999000   999.0
 208   12:05   58.9    71    7.0   202    11.5   999.00    699.5    999.0    999000   999000   999.0    999000   999.0
 208   12:10   58.6    72    5.2   202     9.1   999.00    699.5    999.0    999000   999000   999.0    999000   999.0
 208   12:15   58.2    74    4.6   202    10.0   999.00    699.5    999.0    999000   999000   999.0    999000   999.0
 208   12:20   58.6    72    3.3   202     5.5   999.00    699.5    999.0    999000   999000   999.0    999000   999.0
 208   12:25   58.8    71    2.4   189     5.9   999.00    699.5    999.0    999000   999000   999.0    999000   999.0
 208   12:30   60.0    71    3.6   181     5.2   999.00    699.4    999.0    999000   999000   999.0    999000   999.0
 208   12:35   59.5    71    4.0   182     7.8   999.00    699.4    999.0    999000   999000   999.0    999000   999.0
 208   12:40   60.0    68    4.4   182     7.4   999.00    699.4    999.0    999000   999000   999.0    999000   999.0
 208   12:45   59.8    64    4.2   182     6.6   999.00    699.4    999.0    999000   999000   999.0    999000   999.0
 208   12:50   60.0    62    4.6   182    10.2   999.00    699.3    999.0    999000   999000   999.0    999000   999.0
 208   12:55   60.7    61    5.2   182     8.1   999.00    699.2    999.0    999000   999000   999.0    999000   999.0
 208   13:00   60.9    60    6.5   183    13.2   999.00    699.2    999.0    999000   999000   999.0    999000   999.0
 208   13:05   61.0    59    4.1   183     7.6   999.00    699.2    999.0    999000   999000   999.0    999000   999.0
 208   13:10   61.2    54    8.3   188    12.8   999.00    699.1    999.0    999000   999000   999.0    999000   999.0
 208   13:15   61.5    55    5.6   189     9.4   999.00    699.1    999.0    999000   999000   999.0    999000   999.0
 208   13:20   61.6    54    7.1   192    11.7   999.00    699.1    999.0    999000   999000   999.0    999000   999.0
 208   13:25   62.3    54    6.3   193    10.0   999.00    699.1    999.0    999000   999000   999.0    999000   999.0
 208   13:30   62.0    51    8.0   194    12.0   999.00    699.1    999.0    999000   999000   999.0    999000   999.0
 208   13:35   61.8    49    7.2   198    12.2   999.00    699.1    999.0    999000   999000   999.0    999000   999.0
 208   13:40   62.2    50    7.4   201    14.1   999.00    699.1    999.0    999000   999000   999.0    999000   999.0
 208   13:45   62.2    50    8.8   220    13.0   999.00    699.0    999.0    999000   999000   999.0    999000   999.0
 208   13:50   62.2    51    5.9   234     9.8   999.00    699.1    999.0    999000   999000   999.0    999000   999.0
 208   13:55   63.0    52    6.1   231    12.4   999.00    698.9    999.0    999000   999000   999.0    999000   999.0
 208   14:00   62.9    49   10.2   230    15.2   999.00    698.9    999.0    999000   999000   999.0    999000   999.0
 208   14:05   62.6    50    8.1   234    14.4   999.00    698.9    999.0    999000   999000   999.0    999000   999.0
 208   14:10   62.8    50    7.3   234    12.4   999.00    698.8    999.0    999000   999000   999.0    999000   999.0
 208   14:15   63.1    48    9.4   234    15.6   999.00    698.8    999.0    999000   999000   999.0    999000   999.0
 208   14:20   63.5    48    7.5   236    13.9   999.00    698.8    999.0    999000   999000   999.0    999000   999.0
 208   14:25   63.0    48    5.7   236    13.0   999.00    698.8    999.0    999000   999000   999.0    999000   999.0
 208   14:30   63.5    50    6.2   237    15.6   999.00    698.7    999.0    999000   999000   999.0    999000   999.0
 208   14:35   64.3    46    8.6   246    13.9   999.00    698.6    999.0    999000   999000   999.0    999000   999.0
 208   14:40   63.3    46    9.5   255    16.9   999.00    698.6    999.0    999000   999000   999.0    999000   999.0
 208   14:45   63.8    46    7.4   254    13.5   999.00    698.6    999.0    999000   999000   999.0    999000   999.0
 208   14:50   63.9    45   10.1   259    15.8   999.00    698.5    999.0    999000   999000   999.0    999000   999.0
 208   14:55   63.8    46    9.9   260    13.9   999.00    698.5    999.0    999000   999000   999.0    999000   999.0
 208   15:00   64.0    46    6.3   261    12.0   999.00    698.5    999.0    999000   999000   999.0    999000   999.0
 208   15:05   63.8    46    9.1   284    15.4   999.00    698.4    999.0    999000   999000   999.0    999000   999.0
 208   15:10   64.7    45    7.3   286    12.0   999.00    698.4    999.0    999000   999000   999.0    999000   999.0
 208   15:15   64.0    44    9.4   289    14.3   999.00    698.3    999.0    999000   999000   999.0    999000   999.0
 208   15:20   63.8    45    8.0   292    14.4   999.00    698.3    999.0    999000   999000   999.0    999000   999.0
 208   15:25   63.8    44   12.2   296    20.4   999.00    698.3    999.0    999000   999000   999.0    999000   999.0
 208   15:30   63.8    44    9.0   295    15.6   999.00    698.4    999.0    999000   999000   999.0    999000   999.0
 208   15:35   64.0    44    8.4   298    14.6   999.00    698.3    999.0    999000   999000   999.0    999000   999.0
 208   15:40   64.3    44   10.6   292    17.6   999.00    698.4    999.0    999000   999000   999.0    999000   999.0
 208   15:45   64.7    44    7.5   292    13.0   999.00    698.4    999.0    999000   999000   999.0    999000   999.0
 208   15:50   64.3    44   11.4   282    18.2   999.00    698.4    999.0    999000   999000   999.0    999000   999.0
 208   15:55   64.1    44   10.9   278    17.4   999.00    698.3    999.0    999000   999000   999.0    999000   999.0
 208   16:00   64.2    45   13.4   288    21.7   999.00    698.1    999.0    999000   999000   999.0    999000   999.0
 208   16:05   62.5    46   15.5   299    20.8   999.00    698.1    999.0    999000   999000   999.0    999000   999.0
 208   16:10   63.4    48    7.5   299    11.5   999.00    698.1    999.0    999000   999000   999.0    999000   999.0
 208   16:15   64.0    47   12.7   307    18.7   999.00    698.0    999.0    999000   999000   999.0    999000   999.0
 208   16:20   61.8    51   11.0   309    20.2   999.00    697.9    999.0    999000   999000   999.0    999000   999.0
 208   16:25   61.7    52    9.7   312    17.8   999.00    697.8    999.0    999000   999000   999.0    999000   999.0
 208   16:30   62.9    54   12.6   306    23.0   999.00    697.7    999.0    999000   999000   999.0    999000   999.0
 208   16:35   62.8    57    9.5   319    16.5   999.00    697.8    999.0    999000   999000   999.0    999000   999.0
 208   16:40   62.3    58    7.3   321    16.5   999.00    697.9    999.0    999000   999000   999.0    999000   999.0
 208   16:45   62.0    56    8.2   324    18.9   999.00    697.9    999.0    999000   999000   999.0    999000   999.0
 208   16:50   60.7    56    4.7   328    12.6   999.00    697.9    999.0    999000   999000   999.0    999000   999.0
 208   16:55   62.2    56    2.6   328     6.8   999.00    698.0    999.0    999000   999000   999.0    999000   999.0
 208   17:00   62.9    53    3.7   328     7.9   999.00    698.0    999.0    999000   999000   999.0    999000   999.0
 208   17:05   62.2    53    3.2   328     5.5   999.00    698.0    999.0    999000   999000   999.0    999000   999.0
 208   17:10   62.4    52    2.9   327     5.5   999.00    698.0    999.0    999000   999000   999.0    999000   999.0
 208   17:15   62.3    51    3.6   327     7.6   999.00    698.0    999.0    999000   999000   999.0    999000   999.0
 208   17:20   61.9    52    3.3   327     5.5   999.00    698.1    999.0    999000   999000   999.0    999000   999.0
 208   17:25   62.5    51    3.1   327     4.8   999.00    698.0    999.0    999000   999000   999.0    999000   999.0
 208   17:30   62.2    52    3.9   327     7.0   999.00    698.0    999.0    999000   999000   999.0    999000   999.0
 208   17:35   61.3    54    4.7   327     7.4   999.00    697.9    999.0    999000   999000   999.0    999000   999.0
 208   17:40   62.0    55    4.1   326     7.0   999.00    698.0    999.0    999000   999000   999.0    999000   999.0
 208   17:45   61.4    55    4.0   324     6.1   999.00    698.0    999.0    999000   999000   999.0    999000   999.0
 208   17:50   61.7    54    4.3   324     7.8   999.00    698.0    999.0    999000   999000   999.0    999000   999.0
 208   17:55   61.0    54    6.0   323     9.6   999.00    698.0    999.0    999000   999000   999.0    999000   999.0
 208   18:00   60.9    53    7.2   320    10.0   999.00    698.0    999.0    999000   999000   999.0    999000   999.0
 208   18:05   60.6    53    4.4   320     8.1   999.00    698.0    999.0    999000   999000   999.0    999000   999.0
 208   18:10   60.8    54    5.3   319     8.9   999.00    697.9    999.0    999000   999000   999.0    999000   999.0
 208   18:15   60.7    54    5.4   319     7.4   999.00    697.9    999.0    999000   999000   999.0    999000   999.0
 208   18:20   60.3    55    6.3   319     9.1   999.00    697.9    999.0    999000   999000   999.0    999000   999.0
 208   18:25   60.0    55    5.4   319     7.8   999.00    697.9    999.0    999000   999000   999.0    999000   999.0
 208   18:30   59.8    56    4.8   319     7.8   999.00    697.9    999.0    999000   999000   999.0    999000   999.0
 208   18:35   59.7    57    4.0   319     5.5   999.00    697.9    999.0    999000   999000   999.0    999000   999.0
 208   18:40   59.3    56    3.8   319     4.8   999.00    697.9    999.0    999000   999000   999.0    999000   999.0
 208   18:45   59.3    56    4.1   319     5.5   999.00    698.0    999.0    999000   999000   999.0    999000   999.0
 208   18:50   58.9    56    4.2   319     5.9   999.00    698.0    999.0    999000   999000   999.0    999000   999.0
 208   18:55   58.6    56    3.9   319     5.3   999.00    698.0    999.0    999000   999000   999.0    999000   999.0
 208   19:00   58.4    57    4.7   320     7.0   999.00    698.0    999.0    999000   999000   999.0    999000   999.0
 208   19:05   58.1    57    3.7   320     5.5   999.00    698.0    999.0    999000   999000   999.0    999000   999.0
 208   19:10   58.0    57    3.2   320     5.3   999.00    698.0    999.0    999000   999000   999.0    999000   999.0
 208   19:15   57.8    55    2.6   321     5.2   999.00    698.0    999.0    999000   999000   999.0    999000   999.0
 208   19:20   57.5    54    2.6   320     3.5   999.00    698.0    999.0    999000   999000   999.0    999000   999.0
 208   19:25   57.0    56    2.4   320     3.5   999.00    698.0    999.0    999000   999000   999.0    999000   999.0
 208   19:30   56.8    55    2.2   320     3.1   999.00    698.0    999.0    999000   999000   999.0    999000   999.0
 208   19:35   56.8    54    2.6   320     3.7   999.00    698.0    999.0    999000   999000   999.0    999000   999.0
 208   19:40   56.8    54    2.4   320     2.9   999.00    698.0    999.0    999000   999000   999.0    999000   999.0
 208   19:45   56.9    54    2.9   320     3.5   999.00    698.0    999.0    999000   999000   999.0    999000   999.0
 208   19:50   56.9    54    3.3   320     4.2   999.00    698.0    999.0    999000   999000   999.0    999000   999.0
 208   19:55   56.8    55    3.5   320     4.4   999.00    698.1    999.0    999000   999000   999.0    999000   999.0
 208   20:00   56.7    56    4.1   320     6.1   999.00    698.1    999.0    999000   999000   999.0    999000   999.0
 208   20:05   56.9    55    4.3   320     6.1   999.00    698.1    999.0    999000   999000   999.0    999000   999.0
 208   20:10   56.8    54    3.8   320     5.2   999.00    698.1    999.0    999000   999000   999.0    999000   999.0
 208   20:15   56.8    54    3.3   320     4.0   999.00    698.2    999.0    999000   999000   999.0    999000   999.0
 208   20:20   56.8    54    3.6   320     4.4   999.00    698.2    999.0    999000   999000   999.0    999000   999.0
 208   20:25   56.8    54    4.0   320     5.3   999.00    698.2    999.0    999000   999000   999.0    999000   999.0
 208   20:30   56.8    54    4.0   320     5.0   999.00    698.2    999.0    999000   999000   999.0    999000   999.0
 208   20:35   56.8    54    4.0   320     4.8   999.00    698.2    999.0    999000   999000   999.0    999000   999.0
 208   20:40   56.8    53    4.8   320     6.1   999.00    698.2    999.0    999000   999000   999.0    999000   999.0
 208   20:45   56.7    54    5.6   320     7.4   999.00    698.2    999.0    999000   999000   999.0    999000   999.0
 208   20:50   56.7    53    5.6   320     7.0   999.00    698.3    999.0    999000   999000   999.0    999000   999.0
 208   20:55   56.6    55    4.9   320     6.3   999.00    698.3    999.0    999000   999000   999.0    999000   999.0
 208   21:00   56.1    55    4.9   319     7.6   999.00    698.3    999.0    999000   999000   999.0    999000   999.0
 208   21:05   56.0    55    5.2   319     7.8   999.00    698.3    999.0    999000   999000   999.0    999000   999.0
 208   21:10   56.1    55    5.0   319     6.1   999.00    698.3    999.0    999000   999000   999.0    999000   999.0
 208   21:15   56.1    55    5.1   319     6.1   999.00    698.3    999.0    999000   999000   999.0    999000   999.0
 208   21:20   56.1    54    4.9   319     6.8   999.00    698.3    999.0    999000   999000   999.0    999000   999.0
 208   21:25   56.3    54    4.5   319     5.5   999.00    698.3    999.0    999000   999000   999.0    999000   999.0
 208   21:30   56.3    53    3.9   319     4.8   999.00    698.3    999.0    999000   999000   999.0    999000   999.0
 208   21:35   56.4    53    4.6   319     6.3   999.00    698.3    999.0    999000   999000   999.0    999000   999.0
 208   21:40   56.2    53    4.7   319     6.3   999.00    698.2    999.0    999000   999000   999.0    999000   999.0
 208   21:45   56.2    52    3.8   319     5.3   999.00    698.2    999.0    999000   999000   999.0    999000   999.0
 208   21:50   56.2    52    3.3   319     4.8   999.00    698.2    999.0    999000   999000   999.0    999000   999.0
 208   21:55   56.3    52    3.2   319     4.8   999.00    698.2    999.0    999000   999000   999.0    999000   999.0
 208   22:00   56.1    53    2.5   319     3.5   999.00    698.2    999.0    999000   999000   999.0    999000   999.0
 208   22:05   55.9    53    3.0   319     3.7   999.00    698.2    999.0    999000   999000   999.0    999000   999.0
 208   22:10   55.7    54    2.5   319     3.5   999.00    698.2    999.0    999000   999000   999.0    999000   999.0
 208   22:15   55.7    54    3.0   319     3.8   999.00    698.2    999.0    999000   999000   999.0    999000   999.0
 208   22:20   55.5    54    2.9   319     3.5   999.00    698.2    999.0    999000   999000   999.0    999000   999.0
 208   22:25   55.5    54    2.8   319     3.3   999.00    698.1    999.0    999000   999000   999.0    999000   999.0
 208   22:30   55.5    54    2.8   319     3.5   999.00    698.2    999.0    999000   999000   999.0    999000   999.0
 208   22:35   55.6    54    2.6   319     3.5   999.00    698.2    999.0    999000   999000   999.0    999000   999.0
 208   22:40   55.8    54    2.4   319     3.1   999.00    698.2    999.0    999000   999000   999.0    999000   999.0
 208   22:45   55.8    54    2.2   319     2.9   999.00    698.2    999.0    999000   999000   999.0    999000   999.0
 208   22:50   55.8    54    2.1   319     2.7   999.00    698.2    999.0    999000   999000   999.0    999000   999.0
 208   22:55   55.8    54    1.8   319     2.2   999.00    698.3    999.0    999000   999000   999.0    999000   999.0
 208   23:00   55.9    55    1.8   319     1.8   999.00    698.2    999.0    999000   999000   999.0    999000   999.0
 208   23:05   56.0    55    2.0   319     2.9   999.00    698.2    999.0    999000   999000   999.0    999000   999.0
 208   23:10   56.0    57    2.9   319     3.8   999.00    698.2    999.0    999000   999000   999.0    999000   999.0
 208   23:15   55.9    57    3.2   318     4.0   999.00    698.2    999.0    999000   999000   999.0    999000   999.0
 208   23:20   55.8    58    3.2   318     4.0   999.00    698.1    999.0    999000   999000   999.0    999000   999.0
 208   23:25   55.8    57    3.6   318     4.2   999.00    698.2    999.0    999000   999000   999.0    999000   999.0
 208   23:30   55.7    58    3.7   318     5.2   999.00    698.2    999.0    999000   999000   999.0    999000   999.0
 208   23:35   55.7    58    3.7   318     5.2   999.00    698.2    999.0    999000   999000   999.0    999000   999.0
 208   23:40   55.8    57    3.9   318     4.6   999.00    698.1    999.0    999000   999000   999.0    999000   999.0
 208   23:45   55.8    58    3.9   318     4.6   999.00    698.1    999.0    999000   999000   999.0    999000   999.0
 208   23:50   55.7    58    3.8   318     5.0   999.00    698.1    999.0    999000   999000   999.0    999000   999.0
 208   23:55   55.6    58    3.6   318     4.4   999.00    698.1    999.0    999000   999000   999.0    999000   999.0
 209    0:00   55.5    58    3.8   318     4.8   999.00    698.1    999.0    999000   999000   999.0    999000   999.0
 209    0:05   55.5    57    4.0   318     5.5   999.00    698.1    999.0    999000   999000   999.0    999000   999.0
 209    0:10   55.2    57    4.0   318     6.1   999.00    698.1    999.0    999000   999000   999.0    999000   999.0
 209    0:15   55.5    57    4.5   318     5.9   999.00    698.1    999.0    999000   999000   999.0    999000   999.0
 209    0:20   55.4    56    3.8   318     4.8   999.00    698.1    999.0    999000   999000   999.0    999000   999.0
 209    0:25   55.3    57    4.0   318     5.3   999.00    698.1    999.0    999000   999000   999.0    999000   999.0
 209    0:30   55.5    56    3.5   318     6.5   999.00    698.1    999.0    999000   999000   999.0    999000   999.0
 209    0:35   55.7    52    2.3   317     3.1   999.00    698.1    999.0    999000   999000   999.0    999000   999.0
 209    0:40   55.7    51    3.1   317     4.0   999.00    698.1    999.0    999000   999000   999.0    999000   999.0
 209    0:45   55.1    54    3.1   317     3.5   999.00    698.0    999.0    999000   999000   999.0    999000   999.0
 209    0:50   54.8    57    3.3   317     3.7   999.00    697.9    999.0    999000   999000   999.0    999000   999.0
 209    0:55   54.8    58    4.4   317     5.7   999.00    697.9    999.0    999000   999000   999.0    999000   999.0
 209    1:00   54.8    60    4.7   317     6.6   999.00    697.9    999.0    999000   999000   999.0    999000   999.0
 209    1:05   54.8    61    4.9   315     7.6   999.00    697.9    999.0    999000   999000   999.0    999000   999.0
 209    1:10   54.7    61    6.6   310    10.4   999.00    697.9    999.0    999000   999000   999.0    999000   999.0
 209    1:15   54.6    61    5.8   302     8.5   999.00    697.9    999.0    999000   999000   999.0    999000   999.0
 209    1:20   54.5    60    5.0   300     8.5   999.00    697.9    999.0    999000   999000   999.0    999000   999.0
 209    1:25   54.2    61    3.8   300     5.5   999.00    698.0    999.0    999000   999000   999.0    999000   999.0
 209    1:30   54.3    62    3.8   300     6.5   999.00    698.0    999.0    999000   999000   999.0    999000   999.0
 209    1:35   54.4    62    4.0   300     5.3   999.00    698.0    999.0    999000   999000   999.0    999000   999.0
 209    1:40   54.2    64    4.6   300     6.6   999.00    698.0    999.0    999000   999000   999.0    999000   999.0
 209    1:45   54.3    64    4.6   299     6.1   999.00    698.0    999.0    999000   999000   999.0    999000   999.0
 209    1:50   54.3    64    3.7   299     5.9   999.00    698.0    999.0    999000   999000   999.0    999000   999.0
 209    1:55   54.1    64    3.5   299     6.1   999.00    698.0    999.0    999000   999000   999.0    999000   999.0
 209    2:00   53.9    64    3.5   299     5.2   999.00    698.0    999.0    999000   999000   999.0    999000   999.0
 209    2:05   53.8    64    3.5   299     5.5   999.00    698.0    999.0    999000   999000   999.0    999000   999.0
 209    2:10   53.9    64    2.9   299     4.4   999.00    698.0    999.0    999000   999000   999.0    999000   999.0

Return to DRI Storm Peak Lab. graphs page.


Western Regional Climate Center,wrcc@dri.edu